Aérodrome :
LOGIN :

S'inscrire | Disclaimer

   EN    FR    IT 

 










Légende :    VFR   VFR Marginal   IFR   IFR Intensif   IFR Très Intensif
Visi : 
Plafond : 
>= 8 km
>= 3000ft
5 à 8 km
1000 à 3000 ft
1500m à 5 km
500 à 1000 ft
800 à 1500m
200 à 500 ft
< 800m
< 200 ft
Symboles :   Orages  Brouillard  Fortes neiges  Fortes précipitations  Vent > 20 kt
SIGMETs :   Divers  Orages  Givrage  Turbulence  Onde Orograph.  Cendres Volcan.






- Altitude de l'aérodrome : 1455 ft


ETIH - Hohenfels Army Air Field

DERNIER METAR :
  • 210036Z AUTO 00000KT 9000 -RA BR OVC010 04/03 A2986 RMK AO2 RAB36 SLP129 $

METARs EXPIRÉS :
  • 210013Z AUTO 00000KT 9999 BKN009 OVC013 04/03 A2987 RMK AO2 CIG 009V011 SLP132 $
  • 202256Z AUTO 00000KT 9999 OVC012 04/03 A2988 RMK AO2 SLP135 T00430026 400530021 $
  • 202226Z AUTO 00000KT 9999 OVC011 04/03 A2989 RMK AO2 SLP139 $

Prévision TAF périmée.



MET'MAP, la Météo Aéronautique d'un coup d'oeil ! - Copyright ORBIFLY Décembre 2007 - Disclaimer

ORBIFLY MET'MAP TEAM :

Programmation & Développement : Alexandra Zaïnal
Conception & Développement : Baudouin d'Aumeries
Co-Programmation & Développement : Marc-Olivier Méhu
Soutien technique & logistique : Manuel Goepfert

Contact : metmap@orbifly.com




SOURCES & CREDITS :

   NOAA